createdAt,value
2022-12-08T00:01:23.165Z,86.65
2022-12-08T00:03:50.496Z,90.28
2022-12-08T00:06:43.146Z,80.20
2022-12-08T00:09:39.180Z,81.63
2022-12-08T00:12:17.502Z,80.95
2022-12-08T00:14:46.757Z,106.53
2022-12-08T00:17:15.467Z,86.15
2022-12-08T00:19:42.895Z,85.88
2022-12-08T00:22:11.323Z,92.28
2022-12-08T00:24:39.953Z,82.55
2022-12-08T00:27:07.888Z,89.30
2022-12-08T00:29:34.294Z,91.65
2022-12-08T00:32:00.784Z,130.00
2022-12-08T00:34:27.228Z,108.93
2022-12-08T00:36:53.644Z,101.20
2022-12-08T00:39:20.199Z,112.30
2022-12-08T00:42:05.097Z,89.57
2022-12-08T00:44:31.559Z,107.65
2022-12-08T00:46:58.004Z,82.85
2022-12-08T00:49:24.623Z,79.78
2022-12-08T00:51:51.077Z,92.53
2022-12-08T00:54:18.286Z,111.07
2022-12-08T00:56:44.807Z,107.72
2022-12-08T00:59:11.225Z,104.60
2022-12-08T01:01:37.691Z,93.22
2022-12-08T01:04:10.426Z,106.35
2022-12-08T01:06:36.945Z,116.05
2022-12-08T01:09:06.133Z,87.53
2022-12-08T01:11:33.156Z,82.68
2022-12-08T01:13:59.619Z,134.77
2022-12-08T01:16:28.572Z,90.28
2022-12-08T01:18:56.407Z,99.13
2022-12-08T01:21:23.283Z,87.65
2022-12-08T01:23:49.748Z,80.55
2022-12-08T01:26:17.741Z,103.97
2022-12-08T01:28:45.184Z,98.95
2022-12-08T01:31:20.327Z,108.68
2022-12-08T01:33:47.478Z,82.57
2022-12-08T01:36:25.353Z,80.65
2022-12-08T01:38:52.645Z,92.85
2022-12-08T01:41:22.695Z,131.48
2022-12-08T01:44:08.738Z,129.20
2022-12-08T01:46:38.032Z,99.20
2022-12-08T01:49:35.564Z,93.30
2022-12-08T01:52:11.011Z,89.85
2022-12-08T01:55:05.596Z,85.82
2022-12-08T01:57:39.956Z,105.90
2022-12-08T02:00:11.372Z,119.60
2022-12-08T02:02:57.287Z,83.18
2022-12-08T02:05:27.668Z,88.63
2022-12-08T02:07:56.091Z,139.93
2022-12-08T02:10:24.165Z,89.43
2022-12-08T02:12:53.909Z,135.50
2022-12-08T02:15:28.716Z,81.70
2022-12-08T02:18:32.542Z,98.95
2022-12-08T02:21:29.472Z,91.18
2022-12-08T02:24:20.845Z,84.30
2022-12-08T02:27:18.522Z,76.50
2022-12-08T02:30:12.792Z,66.13
2022-12-08T02:32:45.148Z,57.17
2022-12-08T02:35:17.151Z,52.92
2022-12-08T02:38:01.420Z,53.30
2022-12-08T02:40:49.588Z,48.00
2022-12-08T02:43:32.146Z,54.10
2022-12-08T02:46:08.072Z,51.83
2022-12-08T02:48:35.096Z,48.88
2022-12-08T02:51:01.619Z,52.95
2022-12-08T02:53:33.330Z,61.90
2022-12-08T02:56:07.840Z,55.47
2022-12-08T02:58:42.802Z,46.95
2022-12-08T03:01:18.431Z,47.13
2022-12-08T03:04:13.370Z,53.97
2022-12-08T03:06:55.807Z,47.53
2022-12-08T03:09:42.042Z,43.58
2022-12-08T03:12:08.392Z,48.92
2022-12-08T03:14:36.371Z,52.60
2022-12-08T03:17:04.297Z,47.70
2022-12-08T03:19:35.579Z,50.85
2022-12-08T03:22:04.890Z,44.63
2022-12-08T03:24:37.073Z,51.13
2022-12-08T03:27:20.021Z,44.03
2022-12-08T03:29:52.042Z,54.58
2022-12-08T03:32:47.456Z,48.90
2022-12-08T03:35:20.096Z,53.97
2022-12-08T03:37:46.584Z,58.15
2022-12-08T03:40:17.091Z,48.83
2022-12-08T03:42:43.504Z,56.95
2022-12-08T03:45:10.372Z,53.63
2022-12-08T03:47:36.952Z,54.33
2022-12-08T03:50:04.343Z,57.67
2022-12-08T03:52:31.051Z,61.40
2022-12-08T03:54:57.479Z,63.55
2022-12-08T03:57:23.902Z,67.50
2022-12-08T03:59:50.293Z,70.07
2022-12-08T04:02:16.820Z,77.32
2022-12-08T04:04:44.185Z,69.47
2022-12-08T04:07:10.592Z,60.45
2022-12-08T04:09:37.026Z,69.68
2022-12-08T04:12:03.531Z,73.85
2022-12-08T04:14:30.000Z,79.80
2022-12-08T04:16:56.408Z,68.20
2022-12-08T04:19:22.799Z,71.22
2022-12-08T04:21:49.202Z,75.65
2022-12-08T04:24:15.674Z,71.90
2022-12-08T04:26:42.107Z,70.53
2022-12-08T04:29:08.510Z,76.97
2022-12-08T04:31:34.981Z,67.22
2022-12-08T04:34:01.452Z,81.68
2022-12-08T04:36:27.898Z,83.35
2022-12-08T04:38:54.318Z,81.95
2022-12-08T04:41:20.866Z,84.25
2022-12-08T04:43:47.287Z,77.68
2022-12-08T04:46:13.891Z,81.43
2022-12-08T04:48:41.470Z,86.97
2022-12-08T04:51:15.192Z,78.80
2022-12-08T04:53:46.317Z,88.18
2022-12-08T04:58:43.960Z,75.25
2022-12-08T05:01:10.895Z,82.40
2022-12-08T05:03:37.435Z,78.18
2022-12-08T05:06:04.451Z,81.10
2022-12-08T05:08:32.041Z,78.93
2022-12-08T05:11:04.322Z,74.07
2022-12-08T05:13:30.865Z,77.72
2022-12-08T05:16:09.665Z,85.72
2022-12-08T05:18:37.140Z,73.72
2022-12-08T05:21:04.620Z,83.07
2022-12-08T05:23:31.533Z,73.07
2022-12-08T05:25:58.088Z,66.45
2022-12-08T05:28:42.307Z,76.45
2022-12-08T05:31:10.697Z,76.03
2022-12-08T05:33:37.199Z,74.43
2022-12-08T05:36:03.703Z,65.70
2022-12-08T05:38:30.204Z,71.60
2022-12-08T05:40:56.774Z,64.05
2022-12-08T05:43:23.217Z,69.25
2022-12-08T05:45:50.012Z,68.30
2022-12-08T05:48:16.596Z,72.20
2022-12-08T05:50:49.871Z,66.90
2022-12-08T05:53:18.073Z,63.78
2022-12-08T05:55:44.823Z,68.30
2022-12-08T05:58:19.544Z,61.72
2022-12-08T06:00:46.822Z,63.15
2022-12-08T06:03:15.064Z,68.85
2022-12-08T06:05:43.167Z,64.03
2022-12-08T06:08:10.121Z,70.70
2022-12-08T06:10:39.048Z,67.43
2022-12-08T06:13:05.496Z,83.15
2022-12-08T06:15:34.599Z,75.55
2022-12-08T06:18:01.062Z,80.13
2022-12-08T06:20:27.473Z,66.22
2022-12-08T06:22:57.369Z,73.43
2022-12-08T06:25:24.696Z,70.93
2022-12-08T06:27:51.156Z,66.80
2022-12-08T06:30:18.189Z,70.40
2022-12-08T06:32:44.680Z,74.88
2022-12-08T06:35:11.083Z,74.57
2022-12-08T06:37:37.483Z,72.50
2022-12-08T06:40:04.574Z,77.07
2022-12-08T06:42:49.388Z,61.28
2022-12-08T06:45:17.599Z,72.53
2022-12-08T06:47:44.222Z,66.93
2022-12-08T06:50:11.837Z,69.03
2022-12-08T06:52:46.762Z,69.70
2022-12-08T06:55:35.502Z,66.35
2022-12-08T06:58:02.459Z,63.55
2022-12-08T07:00:30.048Z,66.10
2022-12-08T07:02:56.569Z,69.43
2022-12-08T07:05:23.103Z,59.97
2022-12-08T07:07:49.595Z,70.93
2022-12-08T07:10:16.171Z,70.25
2022-12-08T07:12:42.610Z,55.58
2022-12-08T07:15:09.635Z,56.30
2022-12-08T07:17:36.053Z,57.50
2022-12-08T07:20:02.730Z,63.40
2022-12-08T07:22:29.384Z,61.83
2022-12-08T07:24:55.853Z,54.70
2022-12-08T07:27:22.256Z,56.90
2022-12-08T07:29:49.078Z,60.83
2022-12-08T07:32:15.532Z,54.15
2022-12-08T07:34:41.923Z,49.17
2022-12-08T07:37:08.354Z,61.15
2022-12-08T07:39:34.761Z,54.40
2022-12-08T07:42:01.150Z,58.42
2022-12-08T07:44:27.559Z,48.53
2022-12-08T07:46:53.965Z,56.33
2022-12-08T07:49:20.624Z,59.92
2022-12-08T07:51:47.023Z,54.97
2022-12-08T07:54:13.560Z,55.65
2022-12-08T07:56:40.004Z,54.97
2022-12-08T07:59:06.524Z,51.22
2022-12-08T08:01:35.127Z,59.50
2022-12-08T08:04:05.023Z,46.45
2022-12-08T08:06:36.896Z,51.05
2022-12-08T08:09:04.254Z,51.30
2022-12-08T08:11:30.756Z,47.35
2022-12-08T08:13:57.496Z,51.30
2022-12-08T08:16:24.041Z,50.75
2022-12-08T08:18:51.058Z,52.78
2022-12-08T08:24:05.432Z,54.28
2022-12-08T08:26:31.868Z,55.55
2022-12-08T08:28:58.277Z,51.72
2022-12-08T08:31:26.965Z,53.65
2022-12-08T08:33:53.992Z,58.00
2022-12-08T08:36:21.984Z,58.10
2022-12-08T08:38:48.474Z,60.17
2022-12-08T08:41:14.936Z,55.08
2022-12-08T08:43:41.457Z,51.22
2022-12-08T08:46:08.970Z,57.20
2022-12-08T08:48:36.174Z,66.53
2022-12-08T08:51:13.926Z,58.33
2022-12-08T08:53:41.586Z,50.05
2022-12-08T08:56:09.968Z,49.92
2022-12-08T08:58:36.685Z,59.38
2022-12-08T09:01:03.285Z,60.95
2022-12-08T09:03:29.699Z,56.30
2022-12-08T09:05:56.660Z,59.75
2022-12-08T09:08:23.783Z,57.00
2022-12-08T09:10:50.389Z,49.85
2022-12-08T09:13:16.802Z,56.85
2022-12-08T09:15:43.288Z,55.05
2022-12-08T09:18:09.891Z,59.60
2022-12-08T09:20:36.650Z,55.92
2022-12-08T09:23:03.494Z,58.05
2022-12-08T09:25:30.144Z,61.22
2022-12-08T09:27:56.744Z,57.80
2022-12-08T09:30:23.531Z,63.38
2022-12-08T09:32:50.406Z,59.20
2022-12-08T09:35:17.093Z,55.25
2022-12-08T09:37:43.624Z,63.80
2022-12-08T09:40:15.428Z,61.58
2022-12-08T09:42:51.558Z,53.15
2022-12-08T09:45:19.335Z,59.03
2022-12-08T09:47:59.525Z,58.25
2022-12-08T09:50:43.354Z,61.95
2022-12-08T09:53:16.978Z,52.83
2022-12-08T09:56:04.476Z,53.75
2022-12-08T09:59:01.935Z,51.05
2022-12-08T10:01:31.606Z,53.15
2022-12-08T10:03:58.832Z,53.88
2022-12-08T10:07:04.859Z,58.15
2022-12-08T10:10:13.387Z,54.08
2022-12-08T10:12:54.109Z,48.97
2022-12-08T10:15:27.139Z,69.53
2022-12-08T10:17:55.040Z,59.50
2022-12-08T10:20:26.778Z,56.13
2022-12-08T10:23:07.213Z,59.28
2022-12-08T10:25:39.025Z,50.78
2022-12-08T10:28:05.766Z,54.35
2022-12-08T10:30:32.472Z,55.00
2022-12-08T10:33:00.255Z,53.08
2022-12-08T10:35:46.759Z,52.88
2022-12-08T10:38:37.424Z,48.95
2022-12-08T10:41:09.834Z,44.80
2022-12-08T10:43:44.868Z,54.03
2022-12-08T10:46:22.496Z,56.92
2022-12-08T10:48:49.110Z,53.53
2022-12-08T10:51:39.135Z,54.92
2022-12-08T10:54:24.613Z,48.67
2022-12-08T10:56:56.208Z,47.05
2022-12-08T10:59:25.659Z,47.92
2022-12-08T11:01:54.940Z,49.80
2022-12-08T11:04:40.147Z,47.65
2022-12-08T11:07:11.582Z,54.17
2022-12-08T11:09:48.726Z,54.53
2022-12-08T11:12:20.217Z,49.85
2022-12-08T11:14:55.872Z,46.83
2022-12-08T11:17:22.259Z,40.88
2022-12-08T11:20:09.061Z,52.67
2022-12-08T11:22:43.980Z,55.70
2022-12-08T11:25:11.873Z,51.00
2022-12-08T11:27:43.395Z,44.25
2022-12-08T11:32:44.856Z,52.85
2022-12-08T11:35:18.573Z,49.60
2022-12-08T11:37:45.108Z,46.60
2022-12-08T11:40:31.450Z,50.53
2022-12-08T11:43:34.592Z,44.17
2022-12-08T11:46:04.641Z,47.55
2022-12-08T11:48:46.321Z,46.45
2022-12-08T11:54:22.450Z,51.42
2022-12-08T11:56:52.821Z,49.65
2022-12-08T11:59:25.004Z,52.05
2022-12-08T12:01:51.704Z,51.30
2022-12-08T12:04:42.651Z,50.35
2022-12-08T12:07:33.453Z,49.00
2022-12-08T12:10:37.718Z,47.47
2022-12-08T12:13:47.747Z,45.35
2022-12-08T12:16:29.377Z,51.03
2022-12-08T12:21:34.343Z,49.58
2022-12-08T12:24:08.815Z,47.22
2022-12-08T12:26:38.085Z,42.72
2022-12-08T12:29:17.894Z,50.65
2022-12-08T12:31:51.930Z,46.65
2022-12-08T12:34:25.782Z,44.58
2022-12-08T12:37:23.239Z,49.10
2022-12-08T12:39:52.680Z,43.20
2022-12-08T12:42:44.052Z,44.22
2022-12-08T12:45:33.067Z,42.75
2022-12-08T12:47:59.877Z,44.20
2022-12-08T12:50:49.863Z,42.35
2022-12-08T12:53:16.256Z,45.88
2022-12-08T12:55:45.991Z,47.17
2022-12-08T12:58:27.479Z,40.33
2022-12-08T13:01:12.727Z,46.28
2022-12-08T13:03:42.268Z,41.97
2022-12-08T13:06:14.675Z,47.90
2022-12-08T13:08:51.037Z,45.28
2022-12-08T13:11:17.660Z,43.72
2022-12-08T13:14:03.986Z,42.28
2022-12-08T13:16:37.519Z,46.33
2022-12-08T13:19:11.939Z,42.65
2022-12-08T13:21:39.473Z,43.33
2022-12-08T13:24:17.937Z,49.08
2022-12-08T13:27:03.657Z,46.08
2022-12-08T13:29:40.381Z,39.10
2022-12-08T13:32:09.721Z,38.95
2022-12-08T13:35:00.180Z,45.83
2022-12-08T13:37:31.630Z,41.85
2022-12-08T13:40:02.370Z,54.03
2022-12-08T13:42:49.929Z,43.08
2022-12-08T13:45:59.048Z,47.25
2022-12-08T13:49:31.985Z,49.83
2022-12-08T13:57:37.533Z,44.80
2022-12-08T14:00:15.226Z,46.30
2022-12-08T14:02:47.792Z,51.05
2022-12-08T14:05:18.524Z,45.10
2022-12-08T14:07:49.854Z,57.50
2022-12-08T14:10:29.322Z,42.85
2022-12-08T14:13:00.432Z,45.63
2022-12-08T14:15:30.225Z,39.15
2022-12-08T14:18:00.780Z,47.10
2022-12-08T14:20:30.355Z,49.00
2022-12-08T14:22:59.343Z,48.88
2022-12-08T14:25:28.009Z,47.85
2022-12-08T14:28:03.018Z,42.90
2022-12-08T14:30:32.578Z,40.17
2022-12-08T14:33:00.945Z,54.30
2022-12-08T14:35:30.064Z,55.15
2022-12-08T14:38:01.887Z,45.10
2022-12-08T14:40:35.961Z,46.78
2022-12-08T14:43:08.663Z,44.40
2022-12-08T14:45:45.965Z,49.42
2022-12-08T14:48:22.921Z,53.97
2022-12-08T14:50:55.521Z,47.40
2022-12-08T14:53:22.608Z,49.15
2022-12-08T14:55:50.263Z,54.25
2022-12-08T14:58:27.607Z,50.53
2022-12-08T15:00:58.842Z,52.60
2022-12-08T15:03:28.927Z,50.55
2022-12-08T15:06:01.542Z,49.88
2022-12-08T15:08:28.068Z,56.90
2022-12-08T15:11:26.226Z,47.33
2022-12-08T15:13:54.351Z,46.15
2022-12-08T15:16:40.617Z,50.60
2022-12-08T15:19:28.452Z,47.35
2022-12-08T15:21:57.898Z,53.40
2022-12-08T15:24:28.324Z,56.25
2022-12-08T15:26:55.036Z,49.38
2022-12-08T15:29:27.046Z,80.38
2022-12-08T15:31:56.733Z,168.32
2022-12-08T15:34:23.510Z,116.28
2022-12-08T15:36:52.139Z,77.50
2022-12-08T15:39:44.857Z,65.07
2022-12-08T15:42:15.443Z,60.72
2022-12-08T15:44:42.528Z,56.17
2022-12-08T15:47:20.298Z,54.10
2022-12-08T15:49:48.076Z,68.13
2022-12-08T15:52:17.039Z,87.35
2022-12-08T15:54:43.687Z,75.03
2022-12-08T15:57:22.248Z,59.75
2022-12-08T15:59:56.515Z,59.25
2022-12-08T16:02:25.055Z,60.95
2022-12-08T16:07:39.394Z,57.85
2022-12-08T16:10:07.817Z,46.13
2022-12-08T16:15:59.256Z,42.47
2022-12-08T16:18:30.248Z,41.88
2022-12-08T16:23:44.906Z,51.22
2022-12-08T16:26:39.403Z,52.20
2022-12-08T16:29:05.577Z,45.20
2022-12-08T16:31:32.649Z,43.58
2022-12-08T16:33:59.322Z,42.72
2022-12-08T16:36:25.767Z,52.63
2022-12-08T16:38:52.219Z,55.78
2022-12-08T16:41:37.387Z,61.28
2022-12-08T16:44:05.407Z,41.63
2022-12-08T16:46:32.227Z,40.63
2022-12-08T16:48:59.004Z,46.55
2022-12-08T16:51:27.289Z,39.28
2022-12-08T16:53:58.281Z,46.22
2022-12-08T16:56:32.308Z,47.63
2022-12-08T16:58:59.837Z,44.88
2022-12-08T17:01:26.384Z,51.33
2022-12-08T17:04:22.642Z,64.05
2022-12-08T17:06:39.550Z,65.53
2022-12-08T17:09:06.102Z,85.25
2022-12-08T17:11:36.278Z,86.18
2022-12-08T17:14:09.125Z,84.97
2022-12-08T17:16:35.746Z,102.43
2022-12-08T17:19:02.456Z,53.25
2022-12-08T17:21:28.941Z,48.08
2022-12-08T17:23:55.460Z,49.65
2022-12-08T17:26:21.843Z,52.13
2022-12-08T17:29:03.509Z,48.72
2022-12-08T17:34:09.524Z,59.20
2022-12-08T17:36:36.076Z,48.97
2022-12-08T17:39:03.244Z,51.00
2022-12-08T17:41:30.037Z,52.03
2022-12-08T17:43:56.916Z,56.42
2022-12-08T17:46:23.399Z,65.15
2022-12-08T17:48:49.873Z,68.70
2022-12-08T17:51:16.477Z,56.55
2022-12-08T17:53:43.373Z,56.00
2022-12-08T17:56:19.404Z,54.95
2022-12-08T17:58:49.840Z,53.47
2022-12-08T18:01:19.359Z,60.70
2022-12-08T18:03:45.865Z,54.00
2022-12-08T18:06:12.625Z,52.95
2022-12-08T18:08:39.858Z,55.85
2022-12-08T18:11:12.651Z,56.88
2022-12-08T18:13:39.200Z,55.65
2022-12-08T18:16:05.837Z,59.30
2022-12-08T18:18:32.298Z,66.85
2022-12-08T18:20:58.718Z,78.90
2022-12-08T18:23:25.184Z,69.10
2022-12-08T18:25:51.619Z,84.20
2022-12-08T18:28:18.084Z,63.25
2022-12-08T18:30:44.561Z,65.15
2022-12-08T18:33:11.086Z,67.13
2022-12-08T18:35:39.484Z,66.68
2022-12-08T18:38:06.090Z,71.32
2022-12-08T18:40:32.512Z,63.85
2022-12-08T18:42:59.256Z,52.20
2022-12-08T18:45:25.685Z,64.80
2022-12-08T18:47:52.281Z,49.17
2022-12-08T18:50:18.950Z,53.55
2022-12-08T18:52:46.371Z,54.95
2022-12-08T18:55:13.496Z,58.42
2022-12-08T18:57:43.751Z,61.45
2022-12-08T19:00:13.538Z,57.72
2022-12-08T19:02:40.909Z,56.53
2022-12-08T19:05:09.581Z,55.25
2022-12-08T19:07:36.385Z,53.08
2022-12-08T19:10:04.094Z,60.78
2022-12-08T19:12:31.145Z,57.33
2022-12-08T19:14:57.957Z,55.40
2022-12-08T19:17:25.775Z,55.72
2022-12-08T19:19:52.255Z,64.90
2022-12-08T19:22:18.666Z,77.20
2022-12-08T19:24:45.075Z,73.65
2022-12-08T19:27:11.527Z,63.05
2022-12-08T19:29:37.941Z,62.25
2022-12-08T19:32:05.225Z,64.97
2022-12-08T19:34:31.804Z,59.40
2022-12-08T19:36:58.328Z,65.72
2022-12-08T19:39:43.336Z,59.38
2022-12-08T19:42:37.266Z,53.78
2022-12-08T19:45:10.068Z,66.93
2022-12-08T19:47:36.630Z,66.10
2022-12-08T19:50:22.568Z,72.57
2022-12-08T19:52:49.068Z,67.72
2022-12-08T19:55:15.769Z,68.78
2022-12-08T19:57:42.254Z,55.55
2022-12-08T20:00:10.767Z,61.92
2022-12-08T20:02:37.530Z,60.83
2022-12-08T20:05:06.095Z,61.00
2022-12-08T20:07:32.896Z,51.42
2022-12-08T20:09:59.308Z,52.40
2022-12-08T20:12:25.860Z,52.47
2022-12-08T20:14:52.403Z,53.38
2022-12-08T20:17:19.406Z,53.92
2022-12-08T20:19:45.936Z,54.22
2022-12-08T20:22:12.380Z,57.20
2022-12-08T20:24:38.813Z,52.95
2022-12-08T20:27:05.288Z,53.47
2022-12-08T20:29:31.832Z,58.90
2022-12-08T20:31:58.502Z,58.22
2022-12-08T20:34:24.996Z,53.63
2022-12-08T20:36:51.643Z,63.75
2022-12-08T20:39:19.083Z,62.90
2022-12-08T20:41:46.667Z,48.97
2022-12-08T20:44:13.259Z,52.78
2022-12-08T20:46:41.854Z,57.83
2022-12-08T20:49:11.649Z,51.40
2022-12-08T20:51:38.118Z,59.15
2022-12-08T20:54:04.722Z,51.70
2022-12-08T20:56:32.518Z,51.45
2022-12-08T20:58:59.239Z,55.05
2022-12-08T21:01:26.043Z,60.97
2022-12-08T21:03:52.904Z,56.80
2022-12-08T21:06:24.537Z,52.78
2022-12-08T21:11:17.859Z,51.97
2022-12-08T21:13:45.150Z,55.35
2022-12-08T21:16:14.433Z,56.17
2022-12-08T21:18:41.888Z,50.50
2022-12-08T21:21:12.577Z,56.90
2022-12-08T21:23:39.647Z,61.20
2022-12-08T21:26:18.178Z,50.05
2022-12-08T21:28:45.287Z,52.17
2022-12-08T21:31:15.559Z,50.28
2022-12-08T21:33:42.388Z,51.88
2022-12-08T21:36:12.810Z,53.22
2022-12-08T21:38:39.834Z,54.03
2022-12-08T21:41:09.449Z,57.40
2022-12-08T21:43:36.344Z,49.97
2022-12-08T21:46:03.395Z,56.50
2022-12-08T21:48:30.014Z,52.67
2022-12-08T21:50:56.924Z,58.38
2022-12-08T21:53:26.445Z,58.45
2022-12-08T21:55:53.237Z,58.13
2022-12-08T21:58:19.772Z,57.10
2022-12-08T22:00:46.541Z,60.72
2022-12-08T22:03:14.827Z,56.58
2022-12-08T22:05:42.474Z,56.45
2022-12-08T22:08:09.262Z,56.70
2022-12-08T22:10:35.976Z,56.35
2022-12-08T22:13:02.572Z,56.08
2022-12-08T22:15:29.776Z,51.47
2022-12-08T22:17:56.867Z,58.10
2022-12-08T22:20:23.749Z,64.07
2022-12-08T22:22:50.395Z,54.78
2022-12-08T22:25:16.917Z,61.22
2022-12-08T22:27:43.573Z,54.45
2022-12-08T22:30:11.562Z,54.05
2022-12-08T22:32:38.544Z,51.33
2022-12-08T22:35:05.585Z,58.53
2022-12-08T22:37:32.292Z,64.97
2022-12-08T22:39:58.821Z,57.97
2022-12-08T22:42:25.411Z,62.78
2022-12-08T22:44:51.791Z,54.45
2022-12-08T22:47:18.316Z,54.70
2022-12-08T22:49:44.867Z,68.72
2022-12-08T22:52:11.301Z,73.57
2022-12-08T22:54:37.929Z,73.03
2022-12-08T22:57:04.442Z,98.25
2022-12-08T22:59:33.280Z,106.82
2022-12-08T23:01:59.854Z,93.03
2022-12-08T23:04:26.705Z,113.53
2022-12-08T23:06:53.166Z,154.68
2022-12-08T23:09:19.796Z,91.53
2022-12-08T23:11:46.299Z,75.60
2022-12-08T23:14:12.936Z,61.45
2022-12-08T23:16:39.704Z,61.35
2022-12-08T23:19:06.755Z,57.88
2022-12-08T23:21:33.222Z,61.63
2022-12-08T23:24:01.297Z,57.45
2022-12-08T23:26:29.797Z,62.13
2022-12-08T23:28:57.328Z,57.17
2022-12-08T23:31:24.868Z,63.30
2022-12-08T23:33:52.110Z,58.85
2022-12-08T23:36:19.938Z,59.20
2022-12-08T23:38:47.249Z,72.10
2022-12-08T23:41:15.590Z,64.82
2022-12-08T23:43:48.021Z,55.50
2022-12-08T23:46:16.293Z,61.08
2022-12-08T23:48:42.836Z,63.58
2022-12-08T23:51:10.143Z,64.30
2022-12-08T23:53:36.798Z,63.92
2022-12-08T23:56:09.270Z,62.20
2022-12-08T23:58:36.642Z,57.95
